createdAt,value
2023-03-03T00:01:27.565Z,58.71
2023-03-03T00:03:55.128Z,59.08
2023-03-03T00:06:22.335Z,58.95
2023-03-03T00:08:49.437Z,59.36
2023-03-03T00:11:16.875Z,59.28
2023-03-03T00:13:56.091Z,59.59
2023-03-03T00:16:36.025Z,60.75
2023-03-03T00:19:03.670Z,60.65
2023-03-03T00:21:32.768Z,60.88
2023-03-03T00:24:37.473Z,60.99
2023-03-03T00:27:30.397Z,61.01
2023-03-03T00:30:00.926Z,61.61
2023-03-03T00:32:47.290Z,61.93
2023-03-03T00:35:38.766Z,61.40
2023-03-03T00:38:18.543Z,61.22
2023-03-03T00:40:48.069Z,61.73
2023-03-03T00:43:19.719Z,61.92
2023-03-03T00:45:52.592Z,62.00
2023-03-03T00:48:34.106Z,61.82
2023-03-03T00:51:08.443Z,61.96
2023-03-03T00:53:35.584Z,63.18
2023-03-03T00:56:02.621Z,63.05
2023-03-03T00:58:31.106Z,63.10
2023-03-03T01:00:58.929Z,62.26
2023-03-03T01:03:36.386Z,62.57
2023-03-03T01:06:03.660Z,63.79
2023-03-03T01:08:33.299Z,64.55
2023-03-03T01:11:16.262Z,64.34
2023-03-03T01:13:46.157Z,64.05
2023-03-03T01:16:13.593Z,63.69
2023-03-03T01:18:42.216Z,64.36
2023-03-03T01:21:11.211Z,65.57
2023-03-03T01:23:39.627Z,65.02
2023-03-03T01:26:07.396Z,64.41
2023-03-03T01:28:35.115Z,64.40
2023-03-03T01:31:05.500Z,64.44
2023-03-03T01:33:34.887Z,65.37
2023-03-03T01:36:03.616Z,64.68
2023-03-03T01:38:32.173Z,64.41
2023-03-03T01:41:00.474Z,64.62
2023-03-03T01:43:32.580Z,64.83
2023-03-03T01:45:59.758Z,65.07
2023-03-03T01:48:44.862Z,65.88
2023-03-03T01:51:24.205Z,65.10
2023-03-03T01:53:58.851Z,65.07
2023-03-03T01:56:26.972Z,64.74
2023-03-03T01:59:03.632Z,65.05
2023-03-03T02:01:33.092Z,64.70
2023-03-03T02:04:00.636Z,64.45
2023-03-03T02:06:34.116Z,64.59
2023-03-03T02:09:19.177Z,63.65
2023-03-03T02:11:50.582Z,62.91
2023-03-03T02:14:18.895Z,63.42
2023-03-03T02:16:46.296Z,63.40
2023-03-03T02:19:39.533Z,63.02
2023-03-03T02:22:06.687Z,62.75
2023-03-03T02:24:59.155Z,62.87
2023-03-03T02:27:29.279Z,63.12
2023-03-03T02:29:58.588Z,62.95
2023-03-03T02:32:25.845Z,63.27
2023-03-03T02:34:53.294Z,62.54
2023-03-03T02:37:20.843Z,62.82
2023-03-03T02:39:47.893Z,62.37
2023-03-03T02:42:27.980Z,62.18
2023-03-03T02:44:56.535Z,62.04
2023-03-03T02:47:23.925Z,62.04
2023-03-03T02:49:50.970Z,62.17
2023-03-03T02:52:19.136Z,62.18
2023-03-03T02:54:47.684Z,61.54
2023-03-03T02:57:15.094Z,62.22
2023-03-03T02:59:42.129Z,63.08
2023-03-03T03:02:12.878Z,62.49
2023-03-03T03:04:40.039Z,62.75
2023-03-03T03:07:07.549Z,63.16
2023-03-03T03:09:37.137Z,63.16
2023-03-03T03:12:05.355Z,62.85
2023-03-03T03:14:35.453Z,63.11
2023-03-03T03:17:02.629Z,63.16
2023-03-03T03:19:29.990Z,62.43
2023-03-03T03:22:00.881Z,61.92
2023-03-03T03:24:29.734Z,62.00
2023-03-03T03:27:02.706Z,61.98
2023-03-03T03:29:30.567Z,61.57
2023-03-03T03:31:57.955Z,62.06
2023-03-03T03:34:25.500Z,62.31
2023-03-03T03:36:54.268Z,62.41
2023-03-03T03:39:23.943Z,61.97
2023-03-03T03:41:52.934Z,62.24
2023-03-03T03:44:24.085Z,61.97
2023-03-03T03:46:55.129Z,61.79
2023-03-03T03:49:25.711Z,62.13
2023-03-03T03:51:57.016Z,62.21
2023-03-03T03:54:28.477Z,62.20
2023-03-03T03:56:59.103Z,61.92
2023-03-03T03:59:27.107Z,61.73
2023-03-03T04:01:55.268Z,61.49
2023-03-03T04:04:24.395Z,61.88
2023-03-03T04:06:52.517Z,61.76
2023-03-03T04:09:20.170Z,61.96
2023-03-03T04:11:47.681Z,62.42
2023-03-03T04:14:15.550Z,62.80
2023-03-03T04:16:42.895Z,62.62
2023-03-03T04:19:10.760Z,62.41
2023-03-03T04:21:40.501Z,62.94
2023-03-03T04:24:08.511Z,63.09
2023-03-03T04:26:35.563Z,62.63
2023-03-03T04:29:05.186Z,62.37
2023-03-03T04:31:32.470Z,62.78
2023-03-03T04:34:00.562Z,62.91
2023-03-03T04:36:29.878Z,63.53
2023-03-03T04:38:57.806Z,63.09
2023-03-03T04:41:24.931Z,63.25
2023-03-03T04:43:53.078Z,62.65
2023-03-03T04:46:20.445Z,61.97
2023-03-03T04:48:48.092Z,61.64
2023-03-03T04:51:16.748Z,61.43
2023-03-03T04:53:44.855Z,61.48
2023-03-03T04:56:12.416Z,61.35
2023-03-03T04:58:40.249Z,61.43
2023-03-03T05:01:07.678Z,61.67
2023-03-03T05:03:35.210Z,61.90
2023-03-03T05:06:02.578Z,61.30
2023-03-03T05:08:29.740Z,61.20
2023-03-03T05:10:57.233Z,61.86
2023-03-03T05:13:24.426Z,61.97
2023-03-03T05:15:55.508Z,61.49
2023-03-03T05:18:24.227Z,61.49
2023-03-03T05:20:52.752Z,61.46
2023-03-03T05:23:21.229Z,61.39
2023-03-03T05:25:49.219Z,61.34
2023-03-03T05:28:17.128Z,61.34
2023-03-03T05:30:44.692Z,60.93
2023-03-03T05:33:15.169Z,60.94
2023-03-03T05:35:42.760Z,60.76
2023-03-03T05:38:10.666Z,60.47
2023-03-03T05:40:38.523Z,60.22
2023-03-03T05:43:05.844Z,60.27
2023-03-03T05:45:33.019Z,60.31
2023-03-03T05:48:00.173Z,60.69
2023-03-03T05:50:27.253Z,60.78
2023-03-03T05:52:54.492Z,60.76
2023-03-03T05:55:21.615Z,60.74
2023-03-03T05:57:48.725Z,60.54
2023-03-03T06:00:16.885Z,60.78
2023-03-03T06:02:44.770Z,61.03
2023-03-03T06:05:11.946Z,60.85
2023-03-03T06:07:39.421Z,61.06
2023-03-03T06:10:07.872Z,60.92
2023-03-03T06:12:39.100Z,60.76
2023-03-03T06:15:07.874Z,60.86
2023-03-03T06:17:35.164Z,60.67
2023-03-03T06:20:03.309Z,60.53
2023-03-03T06:22:31.544Z,60.58
2023-03-03T06:24:58.748Z,60.65
2023-03-03T06:27:25.824Z,60.17
2023-03-03T06:29:53.001Z,59.63
2023-03-03T06:32:20.248Z,58.95
2023-03-03T06:34:47.394Z,59.88
2023-03-03T06:37:14.548Z,60.46
2023-03-03T06:39:41.879Z,61.04
2023-03-03T06:42:09.624Z,60.72
2023-03-03T06:44:37.043Z,59.73
2023-03-03T06:47:04.208Z,59.78
2023-03-03T06:49:31.548Z,59.75
2023-03-03T06:52:01.889Z,59.80
2023-03-03T06:54:30.876Z,59.59
2023-03-03T06:57:15.398Z,60.50
2023-03-03T06:59:42.437Z,61.20
2023-03-03T07:02:20.312Z,60.71
2023-03-03T07:04:48.123Z,60.89
2023-03-03T07:07:25.071Z,60.09
2023-03-03T07:09:55.768Z,59.86
2023-03-03T07:12:27.394Z,60.12
2023-03-03T07:15:25.170Z,61.44
2023-03-03T07:17:59.655Z,62.12
2023-03-03T07:20:39.504Z,62.15
2023-03-03T07:23:42.625Z,61.96
2023-03-03T07:26:36.107Z,61.77
2023-03-03T07:29:28.439Z,61.94
2023-03-03T07:31:58.242Z,61.12
2023-03-03T07:34:46.713Z,61.73
2023-03-03T07:37:39.149Z,61.53
2023-03-03T07:40:34.418Z,61.21
2023-03-03T07:43:23.334Z,61.17
2023-03-03T07:45:51.281Z,60.92
2023-03-03T07:48:36.658Z,61.18
2023-03-03T07:51:41.833Z,61.25
2023-03-03T07:54:28.671Z,61.52
2023-03-03T07:57:34.525Z,61.58
2023-03-03T08:00:15.006Z,61.42
2023-03-03T08:02:58.070Z,61.46
2023-03-03T08:05:36.215Z,61.15
2023-03-03T08:08:32.229Z,60.90
2023-03-03T08:11:01.816Z,60.68
2023-03-03T08:13:33.222Z,60.25
2023-03-03T08:16:04.893Z,60.12
2023-03-03T08:18:46.583Z,60.03
2023-03-03T08:21:20.436Z,59.51
2023-03-03T08:23:51.536Z,60.10
2023-03-03T08:26:20.805Z,60.76
2023-03-03T08:28:47.957Z,60.49
2023-03-03T08:31:24.903Z,59.18
2023-03-03T08:33:59.044Z,58.93
2023-03-03T08:36:26.109Z,59.31
2023-03-03T08:38:53.135Z,59.24
2023-03-03T08:41:20.155Z,58.83
2023-03-03T08:43:47.188Z,58.31
2023-03-03T08:46:14.398Z,58.12
2023-03-03T08:48:41.558Z,58.04
2023-03-03T08:51:08.560Z,57.97
2023-03-03T08:53:36.758Z,57.50
2023-03-03T08:56:05.652Z,57.35
2023-03-03T08:58:35.582Z,57.44
2023-03-03T09:01:04.117Z,57.66
2023-03-03T09:03:31.424Z,58.04
2023-03-03T09:05:58.474Z,58.06
2023-03-03T09:08:25.739Z,57.76
2023-03-03T09:10:52.783Z,58.22
2023-03-03T09:13:20.970Z,58.30
2023-03-03T09:15:49.266Z,58.43
2023-03-03T09:18:23.157Z,57.88
2023-03-03T09:20:57.369Z,57.17
2023-03-03T09:23:31.120Z,57.05
2023-03-03T09:26:31.288Z,57.76
2023-03-03T09:29:25.639Z,58.81
2023-03-03T09:31:56.012Z,59.34
2023-03-03T09:34:42.503Z,59.20
2023-03-03T09:37:34.670Z,58.76
2023-03-03T09:40:16.959Z,58.53
2023-03-03T09:43:10.162Z,58.75
2023-03-03T09:46:24.872Z,58.16
2023-03-03T09:49:22.893Z,57.48
2023-03-03T09:52:04.043Z,57.51
2023-03-03T09:55:04.442Z,57.61
2023-03-03T09:58:10.975Z,57.92
2023-03-03T10:00:44.119Z,57.32
2023-03-03T10:03:35.440Z,57.61
2023-03-03T10:06:45.801Z,57.59
2023-03-03T10:09:36.312Z,56.69
2023-03-03T10:12:26.355Z,56.70
2023-03-03T10:15:13.353Z,56.76
2023-03-03T10:17:55.036Z,56.21
2023-03-03T10:21:05.923Z,55.80
2023-03-03T10:23:57.592Z,55.71
2023-03-03T10:27:12.550Z,56.31
2023-03-03T10:30:38.385Z,56.25
2023-03-03T10:33:41.599Z,56.71
2023-03-03T10:36:40.578Z,56.11
2023-03-03T10:39:30.876Z,55.70
2023-03-03T10:42:00.967Z,56.21
2023-03-03T10:44:52.606Z,56.51
2023-03-03T10:47:56.796Z,56.02
2023-03-03T10:50:54.652Z,55.42
2023-03-03T10:53:34.653Z,54.86
2023-03-03T10:56:27.572Z,54.37
2023-03-03T10:59:07.001Z,54.39
2023-03-03T11:02:02.759Z,53.99
2023-03-03T11:04:49.641Z,53.52
2023-03-03T11:07:40.630Z,53.80
2023-03-03T11:10:50.718Z,53.87
2023-03-03T11:13:38.947Z,55.58
2023-03-03T11:16:17.923Z,55.65
2023-03-03T11:19:08.309Z,54.80
2023-03-03T11:22:07.730Z,54.30
2023-03-03T11:24:54.140Z,54.83
2023-03-03T11:28:19.208Z,55.28
2023-03-03T11:31:08.708Z,54.90
2023-03-03T11:33:55.169Z,55.49
2023-03-03T11:36:37.098Z,55.32
2023-03-03T11:39:14.942Z,54.57
2023-03-03T11:42:04.764Z,54.71
2023-03-03T11:44:57.340Z,53.94
2023-03-03T11:47:42.555Z,53.66
2023-03-03T11:50:30.668Z,54.26
2023-03-03T11:53:41.009Z,54.93
2023-03-03T11:56:23.276Z,55.24
2023-03-03T11:59:26.182Z,55.14
2023-03-03T12:02:01.443Z,54.71
2023-03-03T12:04:42.625Z,54.91
2023-03-03T12:07:42.885Z,54.01
2023-03-03T12:10:28.804Z,54.62
2023-03-03T12:13:07.685Z,54.59
2023-03-03T12:15:46.425Z,54.34
2023-03-03T12:18:43.877Z,54.26
2023-03-03T12:21:45.902Z,53.90
2023-03-03T12:24:50.141Z,54.06
2023-03-03T12:27:49.814Z,54.21
2023-03-03T12:31:00.426Z,55.31
2023-03-03T12:33:36.578Z,54.15
2023-03-03T12:36:12.744Z,53.82
2023-03-03T12:39:34.750Z,54.68
2023-03-03T12:42:48.695Z,53.92
2023-03-03T12:46:00.105Z,53.15
2023-03-03T12:48:41.162Z,52.95
2023-03-03T12:51:50.973Z,53.23
2023-03-03T12:54:45.869Z,52.83
2023-03-03T12:57:44.122Z,52.97
2023-03-03T13:00:21.833Z,51.83
2023-03-03T13:03:22.185Z,52.13
2023-03-03T13:06:11.783Z,50.95
2023-03-03T13:09:01.155Z,52.30
2023-03-03T13:11:43.947Z,52.33
2023-03-03T13:14:46.580Z,52.98
2023-03-03T13:17:37.100Z,53.07
2023-03-03T13:20:26.859Z,51.96
2023-03-03T13:23:42.352Z,51.99
2023-03-03T13:26:17.401Z,51.94
2023-03-03T13:29:22.154Z,52.38
2023-03-03T13:31:57.685Z,51.85
2023-03-03T13:34:29.901Z,51.56
2023-03-03T13:37:20.157Z,52.38
2023-03-03T13:39:54.413Z,52.18
2023-03-03T13:42:53.825Z,51.60
2023-03-03T13:45:35.600Z,50.99
2023-03-03T13:48:43.206Z,50.77
2023-03-03T13:51:53.760Z,51.52
2023-03-03T13:54:58.009Z,50.97
2023-03-03T13:57:37.018Z,51.86
2023-03-03T14:00:45.125Z,52.00
2023-03-03T14:03:49.950Z,50.88
2023-03-03T14:06:24.964Z,50.41
2023-03-03T14:09:22.050Z,50.10
2023-03-03T14:12:14.762Z,50.07
2023-03-03T14:14:56.524Z,50.37
2023-03-03T14:17:34.915Z,50.27
2023-03-03T14:20:29.524Z,51.44
2023-03-03T14:23:11.961Z,52.85
2023-03-03T14:25:54.332Z,52.63
2023-03-03T14:28:28.401Z,52.42
2023-03-03T14:30:58.173Z,51.69
2023-03-03T14:33:32.445Z,52.40
2023-03-03T14:35:59.540Z,52.38
2023-03-03T14:38:32.362Z,50.74
2023-03-03T14:41:13.414Z,50.67
2023-03-03T14:43:45.355Z,51.14
2023-03-03T14:46:34.546Z,50.01
2023-03-03T14:49:05.475Z,50.14
2023-03-03T14:51:49.101Z,50.63
2023-03-03T14:54:30.687Z,50.35
2023-03-03T14:56:59.541Z,50.61
2023-03-03T14:59:28.518Z,50.46
2023-03-03T15:02:17.614Z,50.34
2023-03-03T15:04:47.561Z,50.79
2023-03-03T15:07:27.096Z,50.45
2023-03-03T15:09:54.158Z,50.10
2023-03-03T15:12:36.306Z,50.41
2023-03-03T15:15:06.059Z,50.41
2023-03-03T15:17:38.704Z,50.28
2023-03-03T15:20:34.948Z,51.75
2023-03-03T15:23:08.643Z,52.37
2023-03-03T15:25:57.697Z,52.17
2023-03-03T15:29:19.539Z,51.35
2023-03-03T15:32:12.068Z,52.45
2023-03-03T15:34:55.964Z,53.27
2023-03-03T15:37:25.792Z,53.56
2023-03-03T15:40:28.251Z,53.02
2023-03-03T15:43:35.791Z,53.29
2023-03-03T15:46:20.382Z,52.27
2023-03-03T15:49:25.900Z,52.92
2023-03-03T15:53:00.625Z,53.54
2023-03-03T15:56:05.124Z,53.47
2023-03-03T15:58:50.373Z,54.42
2023-03-03T16:01:33.621Z,54.09
2023-03-03T16:04:20.463Z,52.88
2023-03-03T16:06:59.557Z,52.85
2023-03-03T16:10:01.578Z,52.74
2023-03-03T16:13:12.192Z,52.67
2023-03-03T16:16:35.253Z,52.78
2023-03-03T16:19:26.422Z,53.47
2023-03-03T16:22:11.736Z,53.91
2023-03-03T16:25:15.887Z,53.23
2023-03-03T16:28:30.484Z,52.98
2023-03-03T16:31:37.464Z,53.54
2023-03-03T16:34:46.374Z,53.06
2023-03-03T16:37:36.875Z,52.77
2023-03-03T16:40:21.523Z,52.82
2023-03-03T16:42:59.917Z,52.96
2023-03-03T16:45:34.073Z,52.95
2023-03-03T16:48:32.678Z,53.39
2023-03-03T16:51:39.533Z,53.69
2023-03-03T16:54:38.730Z,53.72
2023-03-03T16:57:08.741Z,53.63
2023-03-03T16:59:59.542Z,53.70
2023-03-03T17:02:44.562Z,53.99
2023-03-03T17:05:35.847Z,53.99
2023-03-03T17:08:51.136Z,55.05
2023-03-03T17:11:44.897Z,54.38
2023-03-03T17:14:45.797Z,54.28
2023-03-03T17:17:59.613Z,54.30
2023-03-03T17:20:49.362Z,54.18
2023-03-03T17:23:40.684Z,54.08
2023-03-03T17:26:10.942Z,54.24
2023-03-03T17:28:59.383Z,54.23
2023-03-03T17:31:47.061Z,53.63
2023-03-03T17:34:43.907Z,54.14
2023-03-03T17:37:31.262Z,53.84
2023-03-03T17:40:13.697Z,53.89
2023-03-03T17:43:07.969Z,54.17
2023-03-03T17:45:39.842Z,54.59
2023-03-03T17:48:31.946Z,54.44
2023-03-03T17:51:01.678Z,54.64
2023-03-03T17:53:42.364Z,54.88
2023-03-03T17:56:28.381Z,54.88
2023-03-03T17:59:14.373Z,54.90
2023-03-03T18:02:32.341Z,54.68
2023-03-03T18:05:37.507Z,53.83
2023-03-03T18:08:29.562Z,54.05
2023-03-03T18:11:02.727Z,54.79
2023-03-03T18:13:44.841Z,54.80
2023-03-03T18:16:42.028Z,54.57
2023-03-03T18:19:49.241Z,54.86
2023-03-03T18:22:47.272Z,56.09
2023-03-03T18:25:22.262Z,56.42
2023-03-03T18:28:10.070Z,56.45
2023-03-03T18:30:58.585Z,56.58
2023-03-03T18:34:01.491Z,56.52
2023-03-03T18:36:28.586Z,56.56
2023-03-03T18:38:59.270Z,56.38
2023-03-03T18:41:32.232Z,56.68
2023-03-03T18:44:30.100Z,56.29
2023-03-03T18:46:58.979Z,56.62
2023-03-03T18:50:03.951Z,56.56
2023-03-03T18:52:34.896Z,56.66
2023-03-03T18:55:10.251Z,57.04
2023-03-03T18:57:38.854Z,57.28
2023-03-03T19:00:23.307Z,57.22
2023-03-03T19:02:57.048Z,57.52
2023-03-03T19:05:37.091Z,57.85
2023-03-03T19:08:53.806Z,58.01
2023-03-03T19:11:52.213Z,58.05
2023-03-03T19:14:28.851Z,57.93
2023-03-03T19:17:23.302Z,57.59
2023-03-03T19:20:10.071Z,57.55
2023-03-03T19:23:19.344Z,57.61
2023-03-03T19:25:46.496Z,57.23
2023-03-03T19:28:17.409Z,56.94
2023-03-03T19:31:02.327Z,56.80
2023-03-03T19:33:40.895Z,56.84
2023-03-03T19:36:38.343Z,56.81
2023-03-03T19:39:32.204Z,57.02
2023-03-03T19:42:24.806Z,57.22
2023-03-03T19:45:13.159Z,56.56
2023-03-03T19:48:14.619Z,56.16
2023-03-03T19:51:11.625Z,56.91
2023-03-03T19:54:18.413Z,56.80
2023-03-03T19:56:51.300Z,56.95
2023-03-03T19:59:21.146Z,56.51
2023-03-03T20:02:42.505Z,56.43
2023-03-03T20:05:48.624Z,56.75
2023-03-03T20:08:31.852Z,56.33
2023-03-03T20:11:07.983Z,56.09
2023-03-03T20:13:43.581Z,56.31
2023-03-03T20:16:50.407Z,56.07
2023-03-03T20:20:11.453Z,56.47
2023-03-03T20:22:49.605Z,55.98
2023-03-03T20:25:40.325Z,55.76
2023-03-03T20:28:34.446Z,55.88
2023-03-03T20:31:07.706Z,56.22
2023-03-03T20:33:51.199Z,56.49
2023-03-03T20:36:45.880Z,56.92
2023-03-03T20:39:19.959Z,56.55
2023-03-03T20:42:18.473Z,57.00
2023-03-03T20:45:11.622Z,57.03
2023-03-03T20:47:48.956Z,56.43
2023-03-03T20:50:47.328Z,56.43
2023-03-03T20:54:08.369Z,56.38
2023-03-03T20:56:54.246Z,56.36
2023-03-03T20:59:39.844Z,56.11
2023-03-03T21:03:03.464Z,56.28
2023-03-03T21:05:30.792Z,56.68
2023-03-03T21:08:03.564Z,56.31
2023-03-03T21:10:35.606Z,56.57
2023-03-03T21:13:37.202Z,56.82
2023-03-03T21:16:25.304Z,56.32
2023-03-03T21:19:09.999Z,56.58
2023-03-03T21:21:45.183Z,56.46
2023-03-03T21:24:15.389Z,56.56
2023-03-03T21:27:01.906Z,56.23
2023-03-03T21:29:33.352Z,55.63
2023-03-03T21:32:07.336Z,56.02
2023-03-03T21:34:38.398Z,56.58
2023-03-03T21:37:15.438Z,56.16
2023-03-03T21:39:44.848Z,56.63
2023-03-03T21:42:19.278Z,56.42
2023-03-03T21:44:46.864Z,56.30
2023-03-03T21:47:20.143Z,56.80
2023-03-03T21:49:50.436Z,56.43
2023-03-03T21:52:20.507Z,56.18
2023-03-03T21:54:50.572Z,56.40
2023-03-03T21:57:18.276Z,56.22
2023-03-03T21:59:45.499Z,56.41
2023-03-03T22:02:12.753Z,56.42
2023-03-03T22:04:40.923Z,55.91
2023-03-03T22:07:09.218Z,56.51
2023-03-03T22:09:37.108Z,56.44
2023-03-03T22:12:05.467Z,56.98
2023-03-03T22:14:32.822Z,57.17
2023-03-03T22:17:00.153Z,57.06
2023-03-03T22:19:27.439Z,56.61
2023-03-03T22:21:54.482Z,56.53
2023-03-03T22:24:21.509Z,56.87
2023-03-03T22:26:48.717Z,57.38
2023-03-03T22:29:17.142Z,57.25
2023-03-03T22:31:44.261Z,57.18
2023-03-03T22:34:11.487Z,56.60
2023-03-03T22:36:38.588Z,56.18
2023-03-03T22:39:05.701Z,56.06
2023-03-03T22:41:32.835Z,56.31
2023-03-03T22:44:00.002Z,56.80
2023-03-03T22:46:27.321Z,56.69
2023-03-03T22:48:54.460Z,56.14
2023-03-03T22:51:24.097Z,55.82
2023-03-03T22:53:51.217Z,55.51
2023-03-03T22:56:18.282Z,56.85
2023-03-03T22:58:45.376Z,57.10
2023-03-03T23:01:12.667Z,57.06
2023-03-03T23:03:39.770Z,56.92
2023-03-03T23:06:07.272Z,56.27
2023-03-03T23:08:34.346Z,56.34
2023-03-03T23:11:01.512Z,56.11
2023-03-03T23:13:28.969Z,56.04
2023-03-03T23:16:00.372Z,56.49
2023-03-03T23:18:28.596Z,55.98
2023-03-03T23:20:56.746Z,55.22
2023-03-03T23:23:24.020Z,55.89
2023-03-03T23:25:51.268Z,55.96
2023-03-03T23:28:19.312Z,56.47
2023-03-03T23:30:46.499Z,56.54
2023-03-03T23:33:13.828Z,56.02
2023-03-03T23:35:41.311Z,55.82
2023-03-03T23:38:08.527Z,55.35
2023-03-03T23:40:35.706Z,55.13
2023-03-03T23:43:02.729Z,55.03
2023-03-03T23:45:29.825Z,55.99
2023-03-03T23:47:56.937Z,55.67
2023-03-03T23:50:23.990Z,56.73
2023-03-03T23:52:51.621Z,55.97
2023-03-03T23:55:18.803Z,55.50
2023-03-03T23:57:45.883Z,55.68
